Norrland — C4KF2 — position and weather

sailwx.info

Track history (hours):
 
Tides and Currents Weather Stations Pressure Air Temp Water Temp Dewpoint Dewpoint Depression Visibility Wind Speed Wind Dir Waves Ship Positions

Norrland

Last reported at 2017-Aug-15 06:50 UTC. Time now 2017-Aug-16 21:49 UTC.
Position N 62°24' E 017°24'.

Length 118 m; draft 4.7 m.

Type: Cargo ship. MMSI: 212521000.

Date/timePositionNaut miles runAvg speedWind from/ knotsBaromVisibWave heightAir tempDewpointWater temp
2017-Aug-15 06:50N 62°24' E 017°24'0 0.0
2017-Aug-15 06:23N 62°24' E 017°24'0 0.0
2017-Aug-15 00:46N 62°24' E 017°24'0 0.0
2017-Aug-15 00:29N 62°24' E 017°24'0 0.0
2017-Aug-14 23:59N 62°24' E 017°24'0 0.0
2017-Aug-14 23:29N 62°24' E 017°24'0 0.0
2017-Aug-14 22:06N 62°24' E 017°24'0 0.0
2017-Aug-14 21:59N 62°24' E 017°24'0 0.0
2017-Aug-14 21:24N 62°24' E 017°24'0 0.0
2017-Aug-14 20:59N 62°24' E 017°24'0 0.0
2017-Aug-14 20:27N 62°24' E 017°24'  
2017-Aug-11 18:09N 62°23' E 017°24'110.7
2017-Aug-11 18:00N 62°21' E 017°25'510.1
2017-Aug-11 17:29N 62°22' E 017°36'3 7.1
2017-Aug-11 17:00N 62°20' E 017°42'5 9.8
2017-Aug-11 16:30N 62°15' E 017°46'5 9.1
2017-Aug-11 16:00N 62°11' E 017°50'611.1
2017-Aug-11 15:30N 62°06' E 017°54'510.1
2017-Aug-11 15:00N 62°01' E 017°58'5 9.6
2017-Aug-11 14:30N 61°57' E 018°02'1010.1
2017-Aug-11 13:30N 61°48' E 018°11'5 9.8
2017-Aug-11 13:00N 61°43' E 018°16'5 9.6
2017-Aug-11 12:31N 61°39' E 018°20'510.8
2017-Aug-11 12:01N 61°34' E 018°24'5 9.5
2017-Aug-11 11:31N 61°30' E 018°28'5 9.1
2017-Aug-11 11:00N 61°25' E 018°32'5 9.4
2017-Aug-11 10:30N 61°21' E 018°35'5 9.9
2017-Aug-11 10:00N 61°16' E 018°37'510.0
2017-Aug-11 09:30N 61°11' E 018°40'510.1
2017-Aug-11 09:00N 61°06' E 018°42'510.1
2017-Aug-11 08:30N 61°02' E 018°45'510.1
2017-Aug-11 08:00N 60°57' E 018°48'510.0
2017-Aug-11 07:30N 60°52' E 018°51'5 9.9
2017-Aug-11 07:00N 60°47' E 018°53'5 9.8
2017-Aug-11 06:30N 60°42' E 018°56'5 9.9
2017-Aug-11 06:00N 60°38' E 018°58'5 9.8
2017-Aug-11 05:30N 60°33' E 019°01'5 9.7
2017-Aug-11 05:00N 60°28' E 019°02'5 9.8
2017-Aug-11 04:30N 60°23' E 019°02'5 9.6
2017-Aug-11 04:00N 60°18' E 019°01'5 9.5
2017-Aug-11 03:30N 60°14' E 019°03'5 9.3
2017-Aug-11 03:00N 60°10' E 019°09'5 9.4
2017-Aug-11 02:30N 60°06' E 019°15'5 9.3
2017-Aug-11 02:00N 60°03' E 019°21'5 9.4
2017-Aug-11 01:30N 59°59' E 019°27'5 9.6
2017-Aug-11 01:00N 59°55' E 019°33'5 9.6
2017-Aug-11 00:30N 59°52' E 019°39'5 9.6
2017-Aug-11 00:01N 59°48' E 019°45'5 9.2
2017-Aug-10 23:30N 59°47' E 019°54'5 9.4
2017-Aug-10 23:00N 59°46' E 020°03'5 9.4
2017-Aug-10 22:30N 59°46' E 020°13'5 9.5
2017-Aug-10 22:00N 59°45' E 020°22'5 9.4
2017-Aug-10 21:30N 59°43' E 020°30'5 9.3
2017-Aug-10 21:00N 59°41' E 020°38'5 9.5
2017-Aug-10 20:30N 59°39' E 020°47'5 9.2
2017-Aug-10 20:00N 59°38' E 020°56'5 9.1
2017-Aug-10 19:30N 59°36' E 021°04'5 9.1
2017-Aug-10 19:00N 59°35' E 021°13'4 8.8
2017-Aug-10 18:30N 59°34' E 021°21'4 8.8
2017-Aug-10 18:00N 59°32' E 021°29'4 8.7
2017-Aug-10 17:30N 59°31' E 021°37'4 8.9
2017-Aug-10 17:00N 59°29' E 021°46'4 8.8
2017-Aug-10 16:30N 59°28' E 021°54'4 8.5
2017-Aug-10 16:00N 59°27' E 022°02'4 8.3
2017-Aug-10 15:30N 59°26' E 022°10'4 8.3
2017-Aug-10 15:00N 59°24' E 022°17'4 8.5
2017-Aug-10 14:30N 59°23' E 022°25'4 8.8
2017-Aug-10 14:00N 59°22' E 022°34'4 8.9
2017-Aug-10 13:30N 59°22' E 022°42'4 8.8
2017-Aug-10 13:00N 59°23' E 022°51'4 8.8
2017-Aug-10 12:30N 59°24' E 022°59'4 8.8
2017-Aug-10 12:00N 59°24' E 023°08'4 8.8
2017-Aug-10 11:30N 59°25' E 023°17'4 8.9
2017-Aug-10 11:00N 59°26' E 023°25'4 8.8
2017-Aug-10 10:30N 59°26' E 023°34'4 8.7
2017-Aug-10 10:00N 59°27' E 023°42'4 8.7
2017-Aug-10 09:30N 59°28' E 023°51'4 8.5
2017-Aug-10 09:00N 59°28' E 023°59'4 8.9
2017-Aug-10 08:30N 59°29' E 024°08'4 8.9
2017-Aug-10 08:00N 59°30' E 024°16'5 9.1
2017-Aug-10 07:30N 59°30' E 024°25'4 8.9
2017-Aug-10 07:00N 59°30' E 024°34'4 7.5
2017-Aug-10 06:29N 59°27' E 024°40'0 0.0
2017-Aug-10 05:59N 59°27' E 024°40'0 0.0
2017-Aug-10 05:29N 59°27' E 024°40'0 0.0
2017-Aug-10 04:59N 59°27' E 024°40'0 0.0
2017-Aug-10 04:29N 59°27' E 024°40'0 0.0
2017-Aug-10 03:59N 59°27' E 024°40'0 0.0
2017-Aug-10 03:29N 59°27' E 024°40'0 0.0
2017-Aug-10 03:00N 59°27' E 024°40'0 0.0
2017-Aug-10 02:30N 59°27' E 024°40'0 0.0
2017-Aug-10 02:00N 59°27' E 024°40'0 0.0
2017-Aug-10 01:30N 59°27' E 024°40'0 0.0
2017-Aug-10 01:00N 59°27' E 024°40'0 0.0
2017-Aug-10 00:30N 59°27' E 024°40'0 0.0
2017-Aug-10 00:00N 59°27' E 024°40'0 0.0
2017-Aug-09 23:30N 59°27' E 024°40'0 0.0
2017-Aug-09 23:00N 59°27' E 024°40'0 0.0
2017-Aug-09 22:30N 59°27' E 024°40'0 0.0
2017-Aug-09 22:00N 59°27' E 024°40'0 0.0
2017-Aug-09 21:30N 59°27' E 024°40'0 0.0
2017-Aug-09 21:00N 59°27' E 024°40'0 0.0
2017-Aug-09 20:28N 59°27' E 024°40'0 0.0
2017-Aug-09 20:00N 59°27' E 024°40'0 0.0
2017-Aug-09 19:30N 59°27' E 024°40'0 0.0
2017-Aug-09 19:00N 59°27' E 024°40'0 0.0
2017-Aug-09 18:30N 59°27' E 024°40'0 0.0
2017-Aug-09 18:00N 59°27' E 024°40'0 0.0
2017-Aug-09 17:30N 59°27' E 024°40'0 0.0
2017-Aug-09 17:00N 59°27' E 024°40'0 0.0
2017-Aug-09 16:30N 59°27' E 024°40'0 0.0
2017-Aug-09 16:00N 59°27' E 024°40'0 0.0
2017-Aug-09 15:30N 59°27' E 024°40'0 0.0
2017-Aug-09 14:57N 59°27' E 024°40'0 0.0
2017-Aug-09 14:30N 59°27' E 024°40'0 0.0
2017-Aug-09 14:00N 59°27' E 024°40'0 0.0
2017-Aug-09 13:29N 59°27' E 024°40'0 0.0
2017-Aug-09 12:59N 59°27' E 024°40'0 0.0
2017-Aug-09 12:29N 59°27' E 024°40'0 0.0
2017-Aug-09 11:59N 59°27' E 024°40'0 0.0
2017-Aug-09 11:29N 59°27' E 024°40'0 0.0
2017-Aug-09 10:59N 59°27' E 024°40'0 0.0
2017-Aug-09 10:29N 59°27' E 024°40'0 0.0
2017-Aug-09 09:56N 59°27' E 024°40'0 0.0
2017-Aug-09 09:29N 59°27' E 024°40'0 0.0
2017-Aug-09 08:59N 59°27' E 024°40'0 0.0
2017-Aug-09 08:29N 59°27' E 024°40'0 0.0
2017-Aug-09 07:59N 59°27' E 024°40'0 0.0
2017-Aug-09 07:29N 59°27' E 024°40'0 0.0
2017-Aug-09 06:59N 59°27' E 024°40'0 0.0
2017-Aug-09 06:29N 59°27' E 024°40'0 0.0
2017-Aug-09 05:59N 59°27' E 024°40'0 0.0
2017-Aug-09 05:29N 59°27' E 024°40'0 0.0
2017-Aug-09 04:59N 59°27' E 024°40'0 0.0
2017-Aug-09 04:26N 59°27' E 024°40'0 0.0
2017-Aug-09 03:59N 59°27' E 024°40'0 0.0
2017-Aug-09 03:26N 59°27' E 024°40'0 0.0
2017-Aug-09 02:59N 59°27' E 024°40'0 0.0
2017-Aug-09 02:29N 59°27' E 024°40'0 0.0
2017-Aug-09 01:59N 59°27' E 024°40'0 0.0
2017-Aug-09 01:29N 59°27' E 024°40'0 0.0
2017-Aug-09 01:00N 59°27' E 024°40'0 0.1
2017-Aug-09 00:30N 59°27' E 024°40'1 1.3
2017-Aug-09 00:01N 59°27' E 024°39'2 4.6
2017-Aug-08 23:31N 59°29' E 024°36'1 1.3
2017-Aug-08 22:58N 59°30' E 024°36'0 0.1
2017-Aug-08 22:28N 59°29' E 024°36'0 0.0
2017-Aug-08 22:00N 59°29' E 024°36'0 0.0
2017-Aug-08 21:30N 59°29' E 024°36'0 0.1
2017-Aug-08 21:00N 59°29' E 024°36'0 0.0
2017-Aug-08 20:30N 59°29' E 024°36'0 0.0
2017-Aug-08 20:01N 59°29' E 024°36'0 0.1
2017-Aug-08 19:30N 59°29' E 024°36'0 0.1
2017-Aug-08 19:00N 59°29' E 024°36'0 0.1
2017-Aug-08 18:30N 59°29' E 024°36'0 0.1
2017-Aug-08 18:00N 59°29' E 024°36'0 0.0
2017-Aug-08 17:30N 59°29' E 024°36'0 0.0
2017-Aug-08 17:00N 59°29' E 024°36'0 0.0
2017-Aug-08 16:30N 59°29' E 024°36'0 0.0
2017-Aug-08 16:01N 59°29' E 024°36'0 0.0
2017-Aug-08 15:31N 59°29' E 024°36'0 0.0
2017-Aug-08 15:00N 59°29' E 024°36'0 0.0
2017-Aug-08 14:30N 59°29' E 024°36'0 0.0
2017-Aug-08 14:00N 59°29' E 024°36'0 0.0
2017-Aug-08 13:30N 59°29' E 024°36'0 0.0
2017-Aug-08 13:00N 59°29' E 024°36'0 0.0
2017-Aug-08 12:30N 59°29' E 024°36'0 0.0
2017-Aug-08 12:00N 59°29' E 024°36'0 0.0
2017-Aug-08 11:30N 59°29' E 024°36'0 0.0
2017-Aug-08 11:00N 59°29' E 024°36'0 0.0
2017-Aug-08 10:30N 59°29' E 024°36'0 0.0
2017-Aug-08 10:00N 59°29' E 024°36'0 0.0
2017-Aug-08 09:30N 59°29' E 024°36'0 0.0
2017-Aug-08 09:01N 59°29' E 024°36'0 0.0
2017-Aug-08 08:30N 59°29' E 024°36'0 0.0
2017-Aug-08 08:00N 59°29' E 024°36'0 0.0
2017-Aug-08 07:30N 59°29' E 024°36'0 0.0
2017-Aug-08 07:01N 59°29' E 024°36'0 0.1
2017-Aug-08 06:30N 59°30' E 024°36'1 2.3
2017-Aug-08 06:00N 59°30' E 024°33'510.0
2017-Aug-08 05:30N 59°30' E 024°24'611.3
2017-Aug-08 05:00N 59°29' E 024°13'611.7
2017-Aug-08 04:31N 59°27' E 024°01'611.6
2017-Aug-08 04:00N 59°26' E 023°50'611.5
2017-Aug-08 03:30N 59°25' E 023°39'611.5
2017-Aug-08 03:00N 59°24' E 023°28'611.6
2017-Aug-08 02:30N 59°22' E 023°17'611.6
2017-Aug-08 02:01N 59°19' E 023°07'611.7
2017-Aug-08 01:30N 59°17' E 022°57'611.5
2017-Aug-08 01:00N 59°14' E 022°47'611.2
2017-Aug-08 00:31N 59°11' E 022°37'510.9
2017-Aug-08 00:00N 59°09' E 022°28'511.0
2017-Aug-07 23:30N 59°07' E 022°18'611.1
2017-Aug-07 23:00N 59°04' E 022°08'611.0
2017-Aug-07 22:30N 59°02' E 021°59'611.1
2017-Aug-07 22:00N 58°58' E 021°50'611.6
2017-Aug-07 21:30N 58°54' E 021°43'611.3
2017-Aug-07 21:01N 58°50' E 021°36'611.3
2017-Aug-07 20:30N 58°45' E 021°29'612.7
2017-Aug-07 20:00N 58°40' E 021°21'510.7
2017-Aug-07 19:30N 58°36' E 021°15'5 9.3
2017-Aug-07 19:00N 58°32' E 021°10'510.9
2017-Aug-07 18:30N 58°28' E 021°03'811.0
2017-Aug-07 17:48N 58°22' E 020°54'311.2
2017-Aug-07 17:30N 58°20' E 020°50'23210.8
2017-Aug-06 19:59N 55°42' E 015°38'611.2
2017-Aug-06 19:28N 55°39' E 015°29'511.2
2017-Aug-06 19:00N 55°37' E 015°21'611.2
2017-Aug-06 18:30N 55°34' E 015°13'611.2
2017-Aug-06 18:00N 55°31' E 015°04'611.2
2017-Aug-06 17:30N 55°28' E 014°56'611.2
2017-Aug-06 17:00N 55°25' E 014°47'611.1
2017-Aug-06 16:30N 55°22' E 014°39'510.9
2017-Aug-06 16:00N 55°18' E 014°32'511.0
2017-Aug-06 15:30N 55°14' E 014°26'510.9
2017-Aug-06 15:00N 55°11' E 014°19'611.3
2017-Aug-06 14:30N 55°10' E 014°09'611.2
2017-Aug-06 14:00N 55°10' E 013°59'611.0
2017-Aug-06 13:30N 55°11' E 013°50'611.0
2017-Aug-06 13:00N 55°11' E 013°40'2111.0
2017-Aug-06 11:08N 55°14' E 013°04'311.5
2017-Aug-06 10:55N 55°14' E 012°60'511.4
2017-Aug-06 10:30N 55°15' E 012°52'611.7
2017-Aug-06 10:00N 55°17' E 012°42'5 9.2
2017-Aug-06 09:30N 55°21' E 012°39'510.9
2017-Aug-06 09:00N 55°27' E 012°40'611.4
2017-Aug-06 08:30N 55°32' E 012°42'510.1
2017-Aug-06 08:00N 55°37' E 012°42'611.2
2017-Aug-06 07:30N 55°43' E 012°41'611.0
2017-Aug-06 07:00N 55°48' E 012°42'5 9.9
2017-Aug-06 06:30N 55°53' E 012°39'511.0
2017-Aug-06 06:00N 55°58' E 012°38'510.4
2017-Aug-06 05:30N 56°04' E 012°37'612.2
2017-Aug-06 05:00N 56°08' E 012°29'611.6
2017-Aug-06 04:30N 56°11' E 012°21'611.3
2017-Aug-06 04:00N 56°14' E 012°12'6210.9
2017-Aug-05 22:21N 57°12' E 011°33'410.9
2017-Aug-05 22:00N 57°15' E 011°31'511.0
2017-Aug-05 21:30N 57°21' E 011°27'510.6
2017-Aug-05 20:59N 57°26' E 011°24'510.4
2017-Aug-05 20:30N 57°30' E 011°18'510.8
2017-Aug-05 19:59N 57°34' E 011°11'611.4
2017-Aug-05 19:29N 57°37' E 011°03'611.3
2017-Aug-05 19:00N 57°42' E 010°56'511.2
2017-Aug-05 18:30N 57°45' E 010°48'612.0
2017-Aug-05 17:59N 57°47' E 010°37'612.4
2017-Aug-05 17:30N 57°47' E 010°26'611.6
2017-Aug-05 16:58N 57°47' E 010°14'8011.3
2017-Aug-05 09:55N 57°42' E 007°45'410.1
2017-Aug-05 09:30N 57°43' E 007°37'510.1
2017-Aug-05 09:00N 57°46' E 007°29'510.2
2017-Aug-05 08:30N 57°47' E 007°20'510.3
2017-Aug-05 08:00N 57°49' E 007°10'510.6
2017-Aug-05 07:30N 57°50' E 007°01'510.3
2017-Aug-05 07:00N 57°50' E 006°51'  
Track history (hours):
 
Tides and Currents Weather Stations Pressure Air Temp Water Temp Dewpoint Dewpoint Depression Visibility Wind Speed Wind Dir Waves Ship Positions

Norrland

Last reported at 2017-Aug-15 06:50 UTC. Time now 2017-Aug-16 21:49 UTC.
Position N 62°24' E 017°24'.

Length 118 m; draft 4.7 m.

Type: Cargo ship. MMSI: 212521000.

Date/timePositionNaut miles runAvg speedWind from/ knotsBaromVisibWave heightAir tempDewpointWater temp
2017-Aug-15 06:50N 62°24' E 017°24'0 0.0
2017-Aug-15 06:23N 62°24' E 017°24'0 0.0
2017-Aug-15 00:46N 62°24' E 017°24'0 0.0
2017-Aug-15 00:29N 62°24' E 017°24'0 0.0
2017-Aug-14 23:59N 62°24' E 017°24'0 0.0
2017-Aug-14 23:29N 62°24' E 017°24'0 0.0
2017-Aug-14 22:06N 62°24' E 017°24'0 0.0
2017-Aug-14 21:59N 62°24' E 017°24'0 0.0
2017-Aug-14 21:24N 62°24' E 017°24'0 0.0
2017-Aug-14 20:59N 62°24' E 017°24'0 0.0
2017-Aug-14 20:27N 62°24' E 017°24'  
2017-Aug-11 18:09N 62°23' E 017°24'110.7
2017-Aug-11 18:00N 62°21' E 017°25'510.1
2017-Aug-11 17:29N 62°22' E 017°36'3 7.1
2017-Aug-11 17:00N 62°20' E 017°42'5 9.8
2017-Aug-11 16:30N 62°15' E 017°46'5 9.1
2017-Aug-11 16:00N 62°11' E 017°50'611.1
2017-Aug-11 15:30N 62°06' E 017°54'510.1
2017-Aug-11 15:00N 62°01' E 017°58'5 9.6
2017-Aug-11 14:30N 61°57' E 018°02'1010.1
2017-Aug-11 13:30N 61°48' E 018°11'5 9.8
2017-Aug-11 13:00N 61°43' E 018°16'5 9.6
2017-Aug-11 12:31N 61°39' E 018°20'510.8
2017-Aug-11 12:01N 61°34' E 018°24'5 9.5
2017-Aug-11 11:31N 61°30' E 018°28'5 9.1
2017-Aug-11 11:00N 61°25' E 018°32'5 9.4
2017-Aug-11 10:30N 61°21' E 018°35'5 9.9
2017-Aug-11 10:00N 61°16' E 018°37'510.0
2017-Aug-11 09:30N 61°11' E 018°40'510.1
2017-Aug-11 09:00N 61°06' E 018°42'510.1
2017-Aug-11 08:30N 61°02' E 018°45'510.1
2017-Aug-11 08:00N 60°57' E 018°48'510.0
2017-Aug-11 07:30N 60°52' E 018°51'5 9.9
2017-Aug-11 07:00N 60°47' E 018°53'5 9.8
2017-Aug-11 06:30N 60°42' E 018°56'5 9.9
2017-Aug-11 06:00N 60°38' E 018°58'5 9.8
2017-Aug-11 05:30N 60°33' E 019°01'5 9.7
2017-Aug-11 05:00N 60°28' E 019°02'5 9.8
2017-Aug-11 04:30N 60°23' E 019°02'5 9.6
2017-Aug-11 04:00N 60°18' E 019°01'5 9.5
2017-Aug-11 03:30N 60°14' E 019°03'5 9.3
2017-Aug-11 03:00N 60°10' E 019°09'5 9.4
2017-Aug-11 02:30N 60°06' E 019°15'5 9.3
2017-Aug-11 02:00N 60°03' E 019°21'5 9.4
2017-Aug-11 01:30N 59°59' E 019°27'5 9.6
2017-Aug-11 01:00N 59°55' E 019°33'5 9.6
2017-Aug-11 00:30N 59°52' E 019°39'5 9.6
2017-Aug-11 00:01N 59°48' E 019°45'5 9.2
2017-Aug-10 23:30N 59°47' E 019°54'5 9.4
2017-Aug-10 23:00N 59°46' E 020°03'5 9.4
2017-Aug-10 22:30N 59°46' E 020°13'5 9.5
2017-Aug-10 22:00N 59°45' E 020°22'5 9.4
2017-Aug-10 21:30N 59°43' E 020°30'5 9.3
2017-Aug-10 21:00N 59°41' E 020°38'5 9.5
2017-Aug-10 20:30N 59°39' E 020°47'5 9.2
2017-Aug-10 20:00N 59°38' E 020°56'5 9.1
2017-Aug-10 19:30N 59°36' E 021°04'5 9.1
2017-Aug-10 19:00N 59°35' E 021°13'4 8.8
2017-Aug-10 18:30N 59°34' E 021°21'4 8.8
2017-Aug-10 18:00N 59°32' E 021°29'4 8.7
2017-Aug-10 17:30N 59°31' E 021°37'4 8.9
2017-Aug-10 17:00N 59°29' E 021°46'4 8.8
2017-Aug-10 16:30N 59°28' E 021°54'4 8.5
2017-Aug-10 16:00N 59°27' E 022°02'4 8.3
2017-Aug-10 15:30N 59°26' E 022°10'4 8.3
2017-Aug-10 15:00N 59°24' E 022°17'4 8.5
2017-Aug-10 14:30N 59°23' E 022°25'4 8.8
2017-Aug-10 14:00N 59°22' E 022°34'4 8.9
2017-Aug-10 13:30N 59°22' E 022°42'4 8.8
2017-Aug-10 13:00N 59°23' E 022°51'4 8.8
2017-Aug-10 12:30N 59°24' E 022°59'4 8.8
2017-Aug-10 12:00N 59°24' E 023°08'4 8.8
2017-Aug-10 11:30N 59°25' E 023°17'4 8.9
2017-Aug-10 11:00N 59°26' E 023°25'4 8.8
2017-Aug-10 10:30N 59°26' E 023°34'4 8.7
2017-Aug-10 10:00N 59°27' E 023°42'4 8.7
2017-Aug-10 09:30N 59°28' E 023°51'4 8.5
2017-Aug-10 09:00N 59°28' E 023°59'4 8.9
2017-Aug-10 08:30N 59°29' E 024°08'4 8.9
2017-Aug-10 08:00N 59°30' E 024°16'5 9.1
2017-Aug-10 07:30N 59°30' E 024°25'4 8.9
2017-Aug-10 07:00N 59°30' E 024°34'4 7.5
2017-Aug-10 06:29N 59°27' E 024°40'0 0.0
2017-Aug-10 05:59N 59°27' E 024°40'0 0.0
2017-Aug-10 05:29N 59°27' E 024°40'0 0.0
2017-Aug-10 04:59N 59°27' E 024°40'0 0.0
2017-Aug-10 04:29N 59°27' E 024°40'0 0.0
2017-Aug-10 03:59N 59°27' E 024°40'0 0.0
2017-Aug-10 03:29N 59°27' E 024°40'0 0.0
2017-Aug-10 03:00N 59°27' E 024°40'0 0.0
2017-Aug-10 02:30N 59°27' E 024°40'0 0.0
2017-Aug-10 02:00N 59°27' E 024°40'0 0.0
2017-Aug-10 01:30N 59°27' E 024°40'0 0.0
2017-Aug-10 01:00N 59°27' E 024°40'0 0.0
2017-Aug-10 00:30N 59°27' E 024°40'0 0.0
2017-Aug-10 00:00N 59°27' E 024°40'0 0.0
2017-Aug-09 23:30N 59°27' E 024°40'0 0.0
2017-Aug-09 23:00N 59°27' E 024°40'0 0.0
2017-Aug-09 22:30N 59°27' E 024°40'0 0.0
2017-Aug-09 22:00N 59°27' E 024°40'0 0.0
2017-Aug-09 21:30N 59°27' E 024°40'0 0.0
2017-Aug-09 21:00N 59°27' E 024°40'0 0.0
2017-Aug-09 20:28N 59°27' E 024°40'0 0.0
2017-Aug-09 20:00N 59°27' E 024°40'0 0.0
2017-Aug-09 19:30N 59°27' E 024°40'0 0.0
2017-Aug-09 19:00N 59°27' E 024°40'0 0.0
2017-Aug-09 18:30N 59°27' E 024°40'0 0.0
2017-Aug-09 18:00N 59°27' E 024°40'0 0.0
2017-Aug-09 17:30N 59°27' E 024°40'0 0.0
2017-Aug-09 17:00N 59°27' E 024°40'0 0.0
2017-Aug-09 16:30N 59°27' E 024°40'0 0.0
2017-Aug-09 16:00N 59°27' E 024°40'0 0.0
2017-Aug-09 15:30N 59°27' E 024°40'0 0.0
2017-Aug-09 14:57N 59°27' E 024°40'0 0.0
2017-Aug-09 14:30N 59°27' E 024°40'0 0.0
2017-Aug-09 14:00N 59°27' E 024°40'0 0.0
2017-Aug-09 13:29N 59°27' E 024°40'0 0.0
2017-Aug-09 12:59N 59°27' E 024°40'0 0.0
2017-Aug-09 12:29N 59°27' E 024°40'0 0.0
2017-Aug-09 11:59N 59°27' E 024°40'0 0.0
2017-Aug-09 11:29N 59°27' E 024°40'0 0.0
2017-Aug-09 10:59N 59°27' E 024°40'0 0.0
2017-Aug-09 10:29N 59°27' E 024°40'0 0.0
2017-Aug-09 09:56N 59°27' E 024°40'0 0.0
2017-Aug-09 09:29N 59°27' E 024°40'0 0.0
2017-Aug-09 08:59N 59°27' E 024°40'0 0.0
2017-Aug-09 08:29N 59°27' E 024°40'0 0.0
2017-Aug-09 07:59N 59°27' E 024°40'0 0.0
2017-Aug-09 07:29N 59°27' E 024°40'0 0.0
2017-Aug-09 06:59N 59°27' E 024°40'0 0.0
2017-Aug-09 06:29N 59°27' E 024°40'0 0.0
2017-Aug-09 05:59N 59°27' E 024°40'0 0.0
2017-Aug-09 05:29N 59°27' E 024°40'0 0.0
2017-Aug-09 04:59N 59°27' E 024°40'0 0.0
2017-Aug-09 04:26N 59°27' E 024°40'0 0.0
2017-Aug-09 03:59N 59°27' E 024°40'0 0.0
2017-Aug-09 03:26N 59°27' E 024°40'0 0.0
2017-Aug-09 02:59N 59°27' E 024°40'0 0.0
2017-Aug-09 02:29N 59°27' E 024°40'0 0.0
2017-Aug-09 01:59N 59°27' E 024°40'0 0.0
2017-Aug-09 01:29N 59°27' E 024°40'0 0.0
2017-Aug-09 01:00N 59°27' E 024°40'0 0.1
2017-Aug-09 00:30N 59°27' E 024°40'1 1.3
2017-Aug-09 00:01N 59°27' E 024°39'2 4.6
2017-Aug-08 23:31N 59°29' E 024°36'1 1.3
2017-Aug-08 22:58N 59°30' E 024°36'0 0.1
2017-Aug-08 22:28N 59°29' E 024°36'0 0.0
2017-Aug-08 22:00N 59°29' E 024°36'0 0.0
2017-Aug-08 21:30N 59°29' E 024°36'0 0.1
2017-Aug-08 21:00N 59°29' E 024°36'0 0.0
2017-Aug-08 20:30N 59°29' E 024°36'0 0.0
2017-Aug-08 20:01N 59°29' E 024°36'0 0.1
2017-Aug-08 19:30N 59°29' E 024°36'0 0.1
2017-Aug-08 19:00N 59°29' E 024°36'0 0.1
2017-Aug-08 18:30N 59°29' E 024°36'0 0.1
2017-Aug-08 18:00N 59°29' E 024°36'0 0.0
2017-Aug-08 17:30N 59°29' E 024°36'0 0.0
2017-Aug-08 17:00N 59°29' E 024°36'0 0.0
2017-Aug-08 16:30N 59°29' E 024°36'0 0.0
2017-Aug-08 16:01N 59°29' E 024°36'0 0.0
2017-Aug-08 15:31N 59°29' E 024°36'0 0.0
2017-Aug-08 15:00N 59°29' E 024°36'0 0.0
2017-Aug-08 14:30N 59°29' E 024°36'0 0.0
2017-Aug-08 14:00N 59°29' E 024°36'0 0.0
2017-Aug-08 13:30N 59°29' E 024°36'0 0.0
2017-Aug-08 13:00N 59°29' E 024°36'0 0.0
2017-Aug-08 12:30N 59°29' E 024°36'0 0.0
2017-Aug-08 12:00N 59°29' E 024°36'0 0.0
2017-Aug-08 11:30N 59°29' E 024°36'0 0.0
2017-Aug-08 11:00N 59°29' E 024°36'0 0.0
2017-Aug-08 10:30N 59°29' E 024°36'0 0.0
2017-Aug-08 10:00N 59°29' E 024°36'0 0.0
2017-Aug-08 09:30N 59°29' E 024°36'0 0.0
2017-Aug-08 09:01N 59°29' E 024°36'0 0.0
2017-Aug-08 08:30N 59°29' E 024°36'0 0.0
2017-Aug-08 08:00N 59°29' E 024°36'0 0.0
2017-Aug-08 07:30N 59°29' E 024°36'0 0.0
2017-Aug-08 07:01N 59°29' E 024°36'0 0.1
2017-Aug-08 06:30N 59°30' E 024°36'1 2.3
2017-Aug-08 06:00N 59°30' E 024°33'510.0
2017-Aug-08 05:30N 59°30' E 024°24'611.3
2017-Aug-08 05:00N 59°29' E 024°13'611.7
2017-Aug-08 04:31N 59°27' E 024°01'611.6
2017-Aug-08 04:00N 59°26' E 023°50'611.5
2017-Aug-08 03:30N 59°25' E 023°39'611.5
2017-Aug-08 03:00N 59°24' E 023°28'611.6
2017-Aug-08 02:30N 59°22' E 023°17'611.6
2017-Aug-08 02:01N 59°19' E 023°07'611.7
2017-Aug-08 01:30N 59°17' E 022°57'611.5
2017-Aug-08 01:00N 59°14' E 022°47'611.2
2017-Aug-08 00:31N 59°11' E 022°37'510.9
2017-Aug-08 00:00N 59°09' E 022°28'511.0
2017-Aug-07 23:30N 59°07' E 022°18'611.1
2017-Aug-07 23:00N 59°04' E 022°08'611.0
2017-Aug-07 22:30N 59°02' E 021°59'611.1
2017-Aug-07 22:00N 58°58' E 021°50'611.6
2017-Aug-07 21:30N 58°54' E 021°43'611.3
2017-Aug-07 21:01N 58°50' E 021°36'611.3
2017-Aug-07 20:30N 58°45' E 021°29'612.7
2017-Aug-07 20:00N 58°40' E 021°21'510.7
2017-Aug-07 19:30N 58°36' E 021°15'5 9.3
2017-Aug-07 19:00N 58°32' E 021°10'510.9
2017-Aug-07 18:30N 58°28' E 021°03'811.0
2017-Aug-07 17:48N 58°22' E 020°54'311.2
2017-Aug-07 17:30N 58°20' E 020°50'23210.8
2017-Aug-06 19:59N 55°42' E 015°38'611.2
2017-Aug-06 19:28N 55°39' E 015°29'511.2
2017-Aug-06 19:00N 55°37' E 015°21'611.2
2017-Aug-06 18:30N 55°34' E 015°13'611.2
2017-Aug-06 18:00N 55°31' E 015°04'611.2
2017-Aug-06 17:30N 55°28' E 014°56'611.2
2017-Aug-06 17:00N 55°25' E 014°47'611.1
2017-Aug-06 16:30N 55°22' E 014°39'510.9
2017-Aug-06 16:00N 55°18' E 014°32'511.0
2017-Aug-06 15:30N 55°14' E 014°26'510.9
2017-Aug-06 15:00N 55°11' E 014°19'611.3
2017-Aug-06 14:30N 55°10' E 014°09'611.2
2017-Aug-06 14:00N 55°10' E 013°59'611.0
2017-Aug-06 13:30N 55°11' E 013°50'611.0
2017-Aug-06 13:00N 55°11' E 013°40'2111.0
2017-Aug-06 11:08N 55°14' E 013°04'311.5
2017-Aug-06 10:55N 55°14' E 012°60'511.4
2017-Aug-06 10:30N 55°15' E 012°52'611.7
2017-Aug-06 10:00N 55°17' E 012°42'5 9.2
2017-Aug-06 09:30N 55°21' E 012°39'510.9
2017-Aug-06 09:00N 55°27' E 012°40'611.4
2017-Aug-06 08:30N 55°32' E 012°42'510.1
2017-Aug-06 08:00N 55°37' E 012°42'611.2
2017-Aug-06 07:30N 55°43' E 012°41'611.0
2017-Aug-06 07:00N 55°48' E 012°42'5 9.9
2017-Aug-06 06:30N 55°53' E 012°39'511.0
2017-Aug-06 06:00N 55°58' E 012°38'510.4
2017-Aug-06 05:30N 56°04' E 012°37'612.2
2017-Aug-06 05:00N 56°08' E 012°29'611.6
2017-Aug-06 04:30N 56°11' E 012°21'611.3
2017-Aug-06 04:00N 56°14' E 012°12'6210.9
2017-Aug-05 22:21N 57°12' E 011°33'410.9
2017-Aug-05 22:00N 57°15' E 011°31'511.0
2017-Aug-05 21:30N 57°21' E 011°27'510.6
2017-Aug-05 20:59N 57°26' E 011°24'510.4
2017-Aug-05 20:30N 57°30' E 011°18'510.8
2017-Aug-05 19:59N 57°34' E 011°11'611.4
2017-Aug-05 19:29N 57°37' E 011°03'611.3
2017-Aug-05 19:00N 57°42' E 010°56'511.2
2017-Aug-05 18:30N 57°45' E 010°48'612.0
2017-Aug-05 17:59N 57°47' E 010°37'612.4
2017-Aug-05 17:30N 57°47' E 010°26'611.6
2017-Aug-05 16:58N 57°47' E 010°14'8011.3
2017-Aug-05 09:55N 57°42' E 007°45'410.1
2017-Aug-05 09:30N 57°43' E 007°37'510.1
2017-Aug-05 09:00N 57°46' E 007°29'510.2
2017-Aug-05 08:30N 57°47' E 007°20'510.3
2017-Aug-05 08:00N 57°49' E 007°10'510.6
2017-Aug-05 07:30N 57°50' E 007°01'510.3
2017-Aug-05 07:00N 57°50' E 006°51'  

Dump ship's entire track history